createdAt,value
2023-12-18T00:00:37.726Z,1.70
2023-12-18T00:03:07.329Z,1.70
2023-12-18T00:05:38.658Z,1.60
2023-12-18T00:08:09.770Z,1.60
2023-12-18T00:10:38.737Z,1.60
2023-12-18T00:13:08.087Z,1.60
2023-12-18T00:15:37.888Z,1.60
2023-12-18T00:18:07.301Z,1.60
2023-12-18T00:20:35.608Z,1.60
2023-12-18T00:23:04.144Z,1.60
2023-12-18T00:25:32.268Z,1.50
2023-12-18T00:28:00.752Z,1.40
2023-12-18T00:30:29.145Z,1.40
2023-12-18T00:32:59.354Z,1.50
2023-12-18T00:35:28.239Z,1.50
2023-12-18T00:37:56.418Z,1.50
2023-12-18T00:40:26.809Z,1.50
2023-12-18T00:42:55.228Z,1.50
2023-12-18T00:45:23.554Z,1.60
2023-12-18T00:47:52.831Z,1.60
2023-12-18T00:50:23.310Z,1.50
2023-12-18T00:52:51.917Z,1.50
2023-12-18T00:55:20.393Z,1.50
2023-12-18T00:57:53.478Z,1.50
2023-12-18T01:00:22.617Z,1.60
2023-12-18T01:02:50.982Z,1.50
2023-12-18T01:05:19.577Z,1.50
2023-12-18T01:07:49.615Z,1.50
2023-12-18T01:10:18.562Z,1.40
2023-12-18T01:12:50.014Z,1.40
2023-12-18T01:15:19.099Z,1.50
2023-12-18T01:17:47.710Z,1.50
2023-12-18T01:20:16.653Z,1.40
2023-12-18T01:22:46.990Z,1.40
2023-12-18T01:25:22.393Z,1.30
2023-12-18T01:27:51.868Z,1.30
2023-12-18T01:30:20.617Z,1.30
2023-12-18T01:32:49.167Z,1.40
2023-12-18T01:35:17.963Z,1.40
2023-12-18T01:37:47.810Z,1.50
2023-12-18T01:40:16.616Z,1.50
2023-12-18T01:42:47.786Z,1.60
2023-12-18T01:45:16.290Z,1.60
2023-12-18T01:47:44.906Z,1.60
2023-12-18T01:50:14.969Z,1.60
2023-12-18T01:52:43.810Z,1.60
2023-12-18T01:55:14.129Z,1.50
2023-12-18T01:57:43.335Z,1.40
2023-12-18T02:00:15.666Z,1.40
2023-12-18T02:02:46.069Z,1.40
2023-12-18T02:05:16.838Z,1.30
2023-12-18T02:07:45.228Z,1.40
2023-12-18T02:10:13.958Z,1.30
2023-12-18T02:12:42.179Z,1.20
2023-12-18T02:15:12.866Z,1.20
2023-12-18T02:17:41.295Z,1.10
2023-12-18T02:20:11.512Z,1.10
2023-12-18T02:22:52.926Z,1.10
2023-12-18T02:25:21.699Z,1.10
2023-12-18T02:27:51.249Z,1.00
2023-12-18T02:30:24.800Z,1.10
2023-12-18T02:32:53.650Z,1.10
2023-12-18T02:35:22.087Z,1.20
2023-12-18T02:37:51.566Z,1.20
2023-12-18T02:40:20.478Z,1.20
2023-12-18T02:42:49.192Z,1.30
2023-12-18T02:45:17.386Z,1.40
2023-12-18T02:47:46.649Z,1.50
2023-12-18T02:50:16.084Z,1.60
2023-12-18T02:52:44.786Z,1.60
2023-12-18T02:55:15.217Z,1.60
2023-12-18T02:57:43.960Z,1.60
2023-12-18T03:00:12.953Z,1.70
2023-12-18T03:02:42.503Z,1.60
2023-12-18T03:05:11.090Z,1.60
2023-12-18T03:07:40.718Z,1.60
2023-12-18T03:10:10.322Z,1.70
2023-12-18T03:12:40.026Z,1.60
2023-12-18T03:15:10.605Z,1.70
2023-12-18T03:17:38.730Z,1.70
2023-12-18T03:20:09.125Z,1.70
2023-12-18T03:22:37.349Z,1.70
2023-12-18T03:25:06.293Z,1.70
2023-12-18T03:27:34.686Z,1.80
2023-12-18T03:30:05.323Z,1.80
2023-12-18T03:32:33.685Z,1.80
2023-12-18T03:35:02.083Z,1.90
2023-12-18T03:37:30.636Z,1.90
2023-12-18T03:40:00.587Z,2.00
2023-12-18T03:42:29.226Z,2.00
2023-12-18T03:44:57.880Z,2.00
2023-12-18T03:47:28.153Z,2.00
2023-12-18T03:49:56.419Z,2.00
2023-12-18T03:52:25.846Z,2.10
2023-12-18T03:54:55.502Z,2.00
2023-12-18T03:57:25.852Z,2.00
2023-12-18T03:59:54.351Z,2.10
2023-12-18T04:02:22.626Z,2.10
2023-12-18T04:04:53.997Z,2.00
2023-12-18T04:07:22.672Z,2.00
2023-12-18T04:09:50.943Z,2.00
2023-12-18T04:12:19.226Z,2.00
2023-12-18T04:14:47.834Z,2.10
2023-12-18T04:17:16.245Z,2.20
2023-12-18T04:19:44.982Z,2.20
2023-12-18T04:22:15.062Z,2.20
2023-12-18T04:24:43.772Z,2.10
2023-12-18T04:27:12.489Z,2.10
2023-12-18T04:29:41.289Z,2.00
2023-12-18T04:32:09.646Z,2.00
2023-12-18T04:34:38.070Z,2.00
2023-12-18T04:37:09.641Z,1.90
2023-12-18T04:39:41.161Z,2.00
2023-12-18T04:42:10.076Z,2.00
2023-12-18T04:44:38.646Z,2.00
2023-12-18T04:47:07.212Z,2.10
2023-12-18T04:49:35.680Z,2.10
2023-12-18T04:52:04.116Z,2.10
2023-12-18T04:54:33.381Z,2.10
2023-12-18T04:57:03.652Z,2.10
2023-12-18T04:59:31.855Z,2.10
2023-12-18T05:02:00.307Z,2.10
2023-12-18T05:04:30.187Z,2.10
2023-12-18T05:07:00.078Z,2.10
2023-12-18T05:09:28.680Z,2.10
2023-12-18T05:11:57.025Z,2.20
2023-12-18T05:14:27.189Z,2.30
2023-12-18T05:16:55.520Z,2.20
2023-12-18T05:19:24.069Z,2.30
2023-12-18T05:21:52.964Z,2.30
2023-12-18T05:24:21.575Z,2.20
2023-12-18T05:26:49.992Z,2.20
2023-12-18T05:29:18.584Z,2.10
2023-12-18T05:31:48.798Z,2.10
2023-12-18T05:34:17.116Z,2.10
2023-12-18T05:36:45.765Z,2.10
2023-12-18T05:39:14.610Z,2.10
2023-12-18T05:41:44.543Z,2.10
2023-12-18T05:44:13.084Z,2.10
2023-12-18T05:46:41.782Z,2.10
2023-12-18T05:49:12.141Z,2.10
2023-12-18T05:51:40.949Z,2.10
2023-12-18T05:54:09.315Z,2.10
2023-12-18T05:56:37.978Z,2.10
2023-12-18T05:59:06.432Z,2.10
2023-12-18T06:01:34.954Z,2.10
2023-12-18T06:04:03.736Z,2.10
2023-12-18T06:06:34.619Z,2.10
2023-12-18T06:09:04.017Z,2.20
2023-12-18T06:11:35.506Z,2.20
2023-12-18T06:14:04.076Z,2.20
2023-12-18T06:16:32.396Z,2.20
2023-12-18T06:19:01.326Z,2.20
2023-12-18T06:21:30.726Z,2.10
2023-12-18T06:24:02.390Z,2.10
2023-12-18T06:26:31.981Z,2.20
2023-12-18T06:29:00.060Z,2.20
2023-12-18T06:31:28.754Z,2.20
2023-12-18T06:33:57.435Z,2.20
2023-12-18T06:36:25.681Z,2.10
2023-12-18T06:38:53.908Z,2.00
2023-12-18T06:41:23.984Z,2.00
2023-12-18T06:43:52.555Z,2.00
2023-12-18T06:46:20.769Z,1.90
2023-12-18T06:48:49.352Z,1.90
2023-12-18T06:51:18.260Z,1.80
2023-12-18T06:53:47.224Z,1.80
2023-12-18T06:56:15.412Z,1.90
2023-12-18T06:58:45.320Z,1.90
2023-12-18T07:01:16.022Z,1.90
2023-12-18T07:03:44.421Z,2.00
2023-12-18T07:06:12.978Z,2.00
2023-12-18T07:08:42.009Z,2.10
2023-12-18T07:11:11.468Z,2.10
2023-12-18T07:13:40.022Z,2.10
2023-12-18T07:16:11.131Z,2.10
2023-12-18T07:18:43.997Z,2.10
2023-12-18T07:21:12.524Z,2.10
2023-12-18T07:23:42.896Z,2.10
2023-12-18T07:26:13.933Z,2.00
2023-12-18T07:28:42.669Z,1.90
2023-12-18T07:31:12.572Z,2.00
2023-12-18T07:33:41.307Z,1.90
2023-12-18T07:36:10.459Z,1.90
2023-12-18T07:38:38.844Z,2.00
2023-12-18T07:41:07.352Z,2.00
2023-12-18T07:43:35.645Z,2.00
2023-12-18T07:46:03.894Z,2.00
2023-12-18T07:48:34.901Z,2.00
2023-12-18T07:51:05.169Z,2.00
2023-12-18T07:53:34.097Z,2.00
2023-12-18T07:56:03.871Z,2.10
2023-12-18T07:58:32.432Z,2.10
2023-12-18T08:01:02.376Z,2.20
2023-12-18T08:03:30.712Z,2.20
2023-12-18T08:06:01.074Z,2.30
2023-12-18T08:08:30.110Z,2.30
2023-12-18T08:10:59.026Z,2.30
2023-12-18T08:13:28.836Z,2.20
2023-12-18T08:15:57.227Z,2.20
2023-12-18T08:18:25.804Z,2.30
2023-12-18T08:20:54.701Z,2.30
2023-12-18T08:23:24.964Z,2.30
2023-12-18T08:25:53.043Z,2.30
2023-12-18T08:28:21.481Z,2.20
2023-12-18T08:30:50.085Z,2.20
2023-12-18T08:33:19.856Z,2.30
2023-12-18T08:35:50.859Z,2.30
2023-12-18T08:38:19.191Z,2.30
2023-12-18T08:40:49.575Z,2.30
2023-12-18T08:43:18.493Z,2.30
2023-12-18T08:45:47.260Z,2.20
2023-12-18T08:48:17.139Z,2.20
2023-12-18T08:50:46.693Z,2.20
2023-12-18T08:53:15.741Z,2.20
2023-12-18T08:55:44.592Z,2.20
2023-12-18T08:58:14.958Z,2.10
2023-12-18T09:00:43.826Z,2.20
2023-12-18T09:03:12.542Z,2.10
2023-12-18T09:05:43.394Z,2.10
2023-12-18T09:08:15.208Z,2.10
2023-12-18T09:10:44.186Z,2.10
2023-12-18T09:13:14.151Z,2.10
2023-12-18T09:15:43.297Z,2.00
2023-12-18T09:18:12.007Z,2.00
2023-12-18T09:20:42.006Z,2.00
2023-12-18T09:23:10.627Z,2.00
2023-12-18T09:25:39.058Z,2.00
2023-12-18T09:28:07.942Z,2.00
2023-12-18T09:30:37.975Z,2.00
2023-12-18T09:33:07.131Z,2.10
2023-12-18T09:35:35.438Z,2.10
2023-12-18T09:38:04.239Z,2.20
2023-12-18T09:40:32.601Z,2.20
2023-12-18T09:43:02.779Z,2.30
2023-12-18T09:45:33.143Z,2.30
2023-12-18T09:48:03.002Z,2.30
2023-12-18T09:50:32.571Z,2.30
2023-12-18T09:53:05.677Z,2.40
2023-12-18T09:55:34.778Z,2.60
2023-12-18T09:58:04.244Z,2.60
2023-12-18T10:00:32.715Z,2.60
2023-12-18T10:03:04.342Z,2.60
2023-12-18T10:05:33.120Z,2.60
2023-12-18T10:08:02.999Z,2.60
2023-12-18T10:10:31.920Z,2.50
2023-12-18T10:13:04.553Z,2.60
2023-12-18T10:15:34.970Z,2.70
2023-12-18T10:18:05.537Z,2.70
2023-12-18T10:20:35.478Z,2.60
2023-12-18T10:23:04.632Z,2.60
2023-12-18T10:25:33.316Z,2.70
2023-12-18T10:28:02.095Z,2.70
2023-12-18T10:30:31.360Z,2.80
2023-12-18T10:33:02.039Z,2.80
2023-12-18T10:35:34.895Z,2.70
2023-12-18T10:38:04.425Z,2.60
2023-12-18T10:40:32.742Z,2.60
2023-12-18T10:43:13.495Z,2.70
2023-12-18T10:45:42.194Z,2.80
2023-12-18T10:48:11.861Z,2.80
2023-12-18T10:50:43.385Z,2.80
2023-12-18T10:53:15.186Z,2.80
2023-12-18T10:55:44.990Z,2.90
2023-12-18T10:58:15.113Z,3.00
2023-12-18T11:00:45.936Z,3.00
2023-12-18T11:03:15.455Z,3.10
2023-12-18T11:05:48.075Z,3.10
2023-12-18T11:08:16.426Z,3.10
2023-12-18T11:10:45.436Z,3.30
2023-12-18T11:13:22.552Z,3.30
2023-12-18T11:16:08.046Z,3.40
2023-12-18T11:18:50.094Z,3.40
2023-12-18T11:21:21.230Z,3.20
2023-12-18T11:24:01.454Z,3.00
2023-12-18T11:26:39.463Z,3.10
2023-12-18T11:29:35.459Z,3.00
2023-12-18T11:32:05.465Z,3.00
2023-12-18T11:34:34.804Z,3.10
2023-12-18T11:37:08.078Z,3.20
2023-12-18T11:39:42.024Z,3.40
2023-12-18T11:42:12.496Z,3.50
2023-12-18T11:44:41.739Z,3.50
2023-12-18T11:47:10.079Z,3.60
2023-12-18T11:49:39.020Z,3.70
2023-12-18T11:52:22.636Z,3.80
2023-12-18T11:54:50.998Z,4.10
2023-12-18T11:57:23.315Z,4.10
2023-12-18T11:59:52.450Z,4.20
2023-12-18T12:02:23.300Z,4.30
2023-12-18T12:04:53.621Z,4.40
2023-12-18T12:07:24.996Z,4.50
2023-12-18T12:10:03.892Z,4.60
2023-12-18T12:12:34.718Z,4.70
2023-12-18T12:15:03.471Z,4.60
2023-12-18T12:17:32.705Z,4.60
2023-12-18T12:20:01.353Z,4.60
2023-12-18T12:22:31.204Z,4.70
2023-12-18T12:24:59.774Z,4.80
2023-12-18T12:27:30.987Z,4.90
2023-12-18T12:29:59.976Z,5.00
2023-12-18T12:32:28.810Z,5.10
2023-12-18T12:34:58.655Z,5.00
2023-12-18T12:37:27.291Z,4.90
2023-12-18T12:40:00.637Z,4.70
2023-12-18T12:42:30.449Z,4.70
2023-12-18T12:45:00.198Z,4.70
2023-12-18T12:47:29.003Z,4.80
2023-12-18T12:50:03.724Z,4.90
2023-12-18T12:52:33.215Z,5.00
2023-12-18T12:55:02.766Z,5.20
2023-12-18T12:57:31.250Z,5.10
2023-12-18T13:00:01.161Z,5.10
2023-12-18T13:02:30.039Z,5.00
2023-12-18T13:04:59.184Z,5.00
2023-12-18T13:07:28.359Z,5.00
2023-12-18T13:09:57.746Z,4.90
2023-12-18T13:12:27.182Z,4.90
2023-12-18T13:14:55.376Z,4.90
2023-12-18T13:17:24.253Z,4.80
2023-12-18T13:19:52.801Z,4.80
2023-12-18T13:22:21.463Z,4.80
2023-12-18T13:24:50.011Z,4.90
2023-12-18T13:27:19.324Z,4.90
2023-12-18T13:29:49.737Z,4.90
2023-12-18T13:32:18.551Z,4.80
2023-12-18T13:34:46.959Z,4.80
2023-12-18T13:37:15.981Z,4.90
2023-12-18T13:39:44.701Z,5.00
2023-12-18T13:42:16.393Z,5.00
2023-12-18T13:44:44.894Z,5.10
2023-12-18T13:47:15.533Z,5.20
2023-12-18T13:49:46.424Z,5.40
2023-12-18T13:52:15.842Z,5.50
2023-12-18T13:54:46.660Z,5.50
2023-12-18T13:57:15.190Z,5.50
2023-12-18T13:59:44.735Z,5.50
2023-12-18T14:02:15.174Z,5.70
2023-12-18T14:04:44.690Z,5.70
2023-12-18T14:07:13.020Z,5.60
2023-12-18T14:09:42.224Z,5.50
2023-12-18T14:12:13.334Z,5.20
2023-12-18T14:14:42.115Z,5.10
2023-12-18T14:17:14.050Z,5.10
2023-12-18T14:19:42.342Z,5.10
2023-12-18T14:22:10.841Z,5.10
2023-12-18T14:24:40.318Z,5.10
2023-12-18T14:27:10.546Z,5.00
2023-12-18T14:29:38.983Z,5.00
2023-12-18T14:32:08.081Z,5.00
2023-12-18T14:34:38.638Z,5.00
2023-12-18T14:37:09.595Z,4.90
2023-12-18T14:39:38.001Z,4.80
2023-12-18T14:42:07.291Z,4.70
2023-12-18T14:44:36.228Z,4.60
2023-12-18T14:47:04.929Z,4.60
2023-12-18T14:49:33.987Z,4.60
2023-12-18T14:52:03.988Z,4.50
2023-12-18T14:54:33.198Z,4.50
2023-12-18T14:57:02.044Z,4.50
2023-12-18T14:59:32.220Z,4.50
2023-12-18T15:02:02.785Z,4.50
2023-12-18T15:04:31.411Z,4.50
2023-12-18T15:07:00.553Z,4.60
2023-12-18T15:09:30.684Z,4.60
2023-12-18T15:12:01.281Z,4.60
2023-12-18T15:14:29.794Z,4.60
2023-12-18T15:17:04.623Z,4.60
2023-12-18T15:19:34.614Z,4.60
2023-12-18T15:22:05.712Z,4.70
2023-12-18T15:24:39.794Z,4.70
2023-12-18T15:27:08.773Z,4.60
2023-12-18T15:29:38.232Z,4.60
2023-12-18T15:32:08.311Z,4.60
2023-12-18T15:34:36.948Z,4.60
2023-12-18T15:37:05.842Z,4.60
2023-12-18T15:39:35.669Z,4.50
2023-12-18T15:42:07.131Z,4.50
2023-12-18T15:44:39.159Z,4.40
2023-12-18T15:47:08.617Z,4.40
2023-12-18T15:49:37.190Z,4.40
2023-12-18T15:52:06.111Z,4.40
2023-12-18T15:54:36.683Z,4.40
2023-12-18T15:57:05.564Z,4.30
2023-12-18T15:59:33.669Z,4.30
2023-12-18T16:02:02.127Z,4.10
2023-12-18T16:04:30.585Z,3.80
2023-12-18T16:07:00.620Z,3.60
2023-12-18T16:09:28.146Z,3.30
2023-12-18T16:11:57.680Z,3.20
2023-12-18T16:14:26.667Z,3.20
2023-12-18T16:16:56.489Z,3.30
2023-12-18T16:19:25.601Z,3.30
2023-12-18T16:21:53.878Z,3.40
2023-12-18T16:24:22.911Z,3.40
2023-12-18T16:26:52.551Z,3.30
2023-12-18T16:29:24.207Z,3.30
2023-12-18T16:31:53.868Z,3.40
2023-12-18T16:34:23.250Z,3.50
2023-12-18T16:36:52.269Z,3.70
2023-12-18T16:39:21.552Z,3.70
2023-12-18T16:41:50.604Z,3.50
2023-12-18T16:44:19.234Z,3.50
2023-12-18T16:46:50.972Z,3.50
2023-12-18T16:49:19.968Z,3.60
2023-12-18T16:51:49.129Z,3.80
2023-12-18T16:54:19.142Z,3.90
2023-12-18T16:56:48.044Z,3.90
2023-12-18T16:59:18.038Z,3.90
2023-12-18T17:01:49.183Z,4.00
2023-12-18T17:04:17.781Z,4.00
2023-12-18T17:06:46.673Z,3.90
2023-12-18T17:09:15.063Z,3.70
2023-12-18T17:11:44.644Z,3.70
2023-12-18T17:14:19.801Z,3.80
2023-12-18T17:16:50.247Z,3.80
2023-12-18T17:19:18.887Z,3.80
2023-12-18T17:21:48.985Z,3.80
2023-12-18T17:24:19.141Z,3.80
2023-12-18T17:26:48.268Z,3.90
2023-12-18T17:29:17.902Z,3.90
2023-12-18T17:31:47.242Z,3.80
2023-12-18T17:34:17.673Z,3.70
2023-12-18T17:36:47.802Z,3.60
2023-12-18T17:39:16.216Z,3.70
2023-12-18T17:41:45.035Z,3.80
2023-12-18T17:44:14.996Z,3.80
2023-12-18T17:46:45.100Z,3.80
2023-12-18T17:49:13.965Z,3.80
2023-12-18T17:51:45.843Z,3.80
2023-12-18T17:54:15.571Z,3.80
2023-12-18T17:56:46.704Z,3.80
2023-12-18T17:59:15.039Z,3.80
2023-12-18T18:02:01.832Z,3.70
2023-12-18T18:04:32.544Z,3.70
2023-12-18T18:07:03.795Z,3.60
2023-12-18T18:09:33.263Z,3.60
2023-12-18T18:12:01.930Z,3.70
2023-12-18T18:14:30.668Z,3.80
2023-12-18T18:17:00.197Z,3.70
2023-12-18T18:19:30.617Z,3.60
2023-12-18T18:22:02.326Z,3.60
2023-12-18T18:24:31.164Z,3.50
2023-12-18T18:27:08.768Z,3.40
2023-12-18T18:29:39.726Z,3.20
2023-12-18T18:32:10.874Z,3.00
2023-12-18T18:34:40.841Z,3.00
2023-12-18T18:37:11.520Z,3.10
2023-12-18T18:39:42.342Z,3.00
2023-12-18T18:42:11.555Z,3.00
2023-12-18T18:44:42.365Z,2.90
2023-12-18T18:47:11.667Z,2.90
2023-12-18T18:49:41.675Z,2.90
2023-12-18T18:52:14.232Z,2.90
2023-12-18T18:54:44.125Z,2.90
2023-12-18T18:57:14.109Z,2.90
2023-12-18T18:59:43.261Z,2.90
2023-12-18T19:02:13.485Z,2.90
2023-12-18T19:04:43.236Z,2.90
2023-12-18T19:07:15.387Z,2.70
2023-12-18T19:09:44.896Z,2.70
2023-12-18T19:12:14.975Z,2.70
2023-12-18T19:14:47.798Z,2.70
2023-12-18T19:17:16.591Z,2.70
2023-12-18T19:19:45.976Z,2.80
2023-12-18T19:22:18.685Z,2.80
2023-12-18T19:24:47.646Z,2.70
2023-12-18T19:27:16.657Z,2.70
2023-12-18T19:29:45.570Z,2.60
2023-12-18T19:32:14.626Z,2.50
2023-12-18T19:34:43.445Z,2.50
2023-12-18T19:37:12.624Z,2.50
2023-12-18T19:39:43.529Z,2.50
2023-12-18T19:42:11.928Z,2.50
2023-12-18T19:44:40.669Z,2.40
2023-12-18T19:47:09.229Z,2.40
2023-12-18T19:49:40.920Z,2.30
2023-12-18T19:52:10.390Z,2.30
2023-12-18T19:54:40.125Z,2.40
2023-12-18T19:57:10.555Z,2.40
2023-12-18T19:59:40.418Z,2.30
2023-12-18T20:02:10.617Z,2.40
2023-12-18T20:04:40.017Z,2.30
2023-12-18T20:07:15.250Z,2.30
2023-12-18T20:09:45.421Z,2.20
2023-12-18T20:12:19.783Z,2.20
2023-12-18T20:14:49.207Z,2.10
2023-12-18T20:17:18.465Z,2.10
2023-12-18T20:19:48.125Z,2.00
2023-12-18T20:22:16.884Z,2.00
2023-12-18T20:24:47.513Z,2.00
2023-12-18T20:27:18.131Z,2.00
2023-12-18T20:29:49.236Z,2.00
2023-12-18T20:32:17.661Z,1.90
2023-12-18T20:34:47.072Z,1.90
2023-12-18T20:37:16.446Z,1.80
2023-12-18T20:39:45.235Z,1.60
2023-12-18T20:42:14.724Z,1.60
2023-12-18T20:44:44.897Z,1.40
2023-12-18T20:47:13.956Z,1.30
2023-12-18T20:49:43.180Z,1.20
2023-12-18T20:52:11.654Z,1.20
2023-12-18T20:54:41.134Z,1.20
2023-12-18T20:57:10.297Z,1.20
2023-12-18T20:59:42.395Z,1.10
2023-12-18T21:02:13.160Z,1.00
2023-12-18T21:04:41.908Z,1.00
2023-12-18T21:07:10.835Z,1.00
2023-12-18T21:09:39.461Z,1.10
2023-12-18T21:12:09.083Z,1.20
2023-12-18T21:14:37.933Z,1.30
2023-12-18T21:17:06.963Z,1.30
2023-12-18T21:19:39.966Z,1.20
2023-12-18T21:22:09.430Z,1.00
2023-12-18T21:24:38.652Z,1.00
2023-12-18T21:27:08.961Z,1.00
2023-12-18T21:29:37.797Z,0.90
2023-12-18T21:32:07.706Z,0.80
2023-12-18T21:34:38.251Z,0.70
2023-12-18T21:37:07.078Z,0.80
2023-12-18T21:39:36.899Z,0.80
2023-12-18T21:42:06.733Z,0.80
2023-12-18T21:44:35.530Z,0.70
2023-12-18T21:47:06.125Z,0.70
2023-12-18T21:49:38.774Z,0.70
2023-12-18T21:52:10.798Z,0.70
2023-12-18T21:54:40.504Z,0.70
2023-12-18T21:57:11.533Z,0.60
2023-12-18T21:59:40.190Z,0.60
2023-12-18T22:02:09.861Z,0.60
2023-12-18T22:04:39.144Z,0.50
2023-12-18T22:07:09.842Z,0.50
2023-12-18T22:09:39.559Z,0.50
2023-12-18T22:12:09.034Z,0.50
2023-12-18T22:14:37.469Z,0.50
2023-12-18T22:17:06.536Z,0.50
2023-12-18T22:19:35.281Z,0.40
2023-12-18T22:22:06.834Z,0.40
2023-12-18T22:24:38.480Z,0.40
2023-12-18T22:27:07.937Z,0.30
2023-12-18T22:29:36.901Z,0.20
2023-12-18T22:32:06.343Z,0.20
2023-12-18T22:34:35.694Z,0.20
2023-12-18T22:37:05.320Z,0.20
2023-12-18T22:39:34.540Z,0.20
2023-12-18T22:42:05.376Z,0.10
2023-12-18T22:44:33.884Z,0.10
2023-12-18T22:47:04.392Z,0.00
2023-12-18T22:49:33.203Z,0.00
2023-12-18T22:52:02.286Z,0.00
2023-12-18T22:54:31.078Z,0.10
2023-12-18T22:56:59.638Z,0.10
2023-12-18T22:59:29.667Z,0.10
2023-12-18T23:01:58.564Z,0.10
2023-12-18T23:04:28.559Z,0.10
2023-12-18T23:06:57.599Z,0.20
2023-12-18T23:09:27.112Z,0.20
2023-12-18T23:11:55.894Z,0.30
2023-12-18T23:14:24.187Z,0.30
2023-12-18T23:16:54.906Z,0.40
2023-12-18T23:19:23.264Z,0.50
2023-12-18T23:21:52.417Z,0.50
2023-12-18T23:24:20.970Z,0.50
2023-12-18T23:26:49.954Z,0.50
2023-12-18T23:29:18.691Z,0.50
2023-12-18T23:31:47.945Z,0.60
2023-12-18T23:34:18.227Z,0.60
2023-12-18T23:36:46.458Z,0.60
2023-12-18T23:39:17.344Z,0.70
2023-12-18T23:41:46.345Z,0.70
2023-12-18T23:44:16.278Z,0.70
2023-12-18T23:46:44.647Z,0.80
2023-12-18T23:49:13.597Z,0.80
2023-12-18T23:51:43.980Z,0.80
2023-12-18T23:54:12.814Z,0.80
2023-12-18T23:56:41.433Z,0.90
2023-12-18T23:59:10.130Z,0.90
